createdAt,value
2024-02-19T00:01:15.382Z,11.47
2024-02-19T00:03:42.235Z,12.33
2024-02-19T00:06:10.480Z,15.10
2024-02-19T00:08:37.346Z,11.57
2024-02-19T00:11:04.146Z,12.73
2024-02-19T00:13:31.270Z,18.03
2024-02-19T00:15:58.085Z,13.80
2024-02-19T00:18:24.997Z,17.53
2024-02-19T00:20:51.707Z,13.57
2024-02-19T00:23:18.568Z,14.07
2024-02-19T00:25:45.198Z,19.53
2024-02-19T00:28:12.462Z,16.63
2024-02-19T00:30:40.633Z,11.50
2024-02-19T00:33:07.706Z,15.13
2024-02-19T00:35:34.504Z,16.83
2024-02-19T00:38:01.527Z,13.97
2024-02-19T00:40:28.310Z,11.83
2024-02-19T00:42:55.502Z,10.30
2024-02-19T00:45:22.469Z,17.97
2024-02-19T00:47:49.284Z,20.93
2024-02-19T00:50:16.082Z,14.40
2024-02-19T00:52:43.037Z,14.80
2024-02-19T00:55:10.238Z,13.83
2024-02-19T00:57:38.454Z,11.60
2024-02-19T01:00:06.750Z,12.30
2024-02-19T01:02:33.900Z,13.97
2024-02-19T01:05:01.194Z,22.97
2024-02-19T01:07:28.168Z,15.40
2024-02-19T01:09:55.088Z,15.53
2024-02-19T01:12:22.002Z,12.83
2024-02-19T01:14:49.009Z,15.27
2024-02-19T01:17:16.206Z,17.77
2024-02-19T01:19:43.582Z,14.53
2024-02-19T01:22:12.657Z,15.03
2024-02-19T01:24:39.828Z,17.17
2024-02-19T01:27:07.826Z,13.77
2024-02-19T01:29:35.407Z,14.70
2024-02-19T01:32:02.194Z,17.90
2024-02-19T01:34:31.206Z,13.73
2024-02-19T01:36:58.942Z,31.03
2024-02-19T01:39:26.279Z,12.17
2024-02-19T01:41:53.014Z,13.80
2024-02-19T01:44:19.731Z,10.33
2024-02-19T01:46:47.072Z,16.20
2024-02-19T01:49:14.113Z,17.20
2024-02-19T01:51:41.201Z,18.47
2024-02-19T01:54:09.687Z,16.87
2024-02-19T01:56:37.800Z,17.57
2024-02-19T01:59:07.456Z,21.20
2024-02-19T02:01:35.783Z,13.07
2024-02-19T02:04:03.240Z,13.77
2024-02-19T02:06:30.201Z,19.43
2024-02-19T02:08:57.208Z,22.50
2024-02-19T02:11:23.942Z,17.50
2024-02-19T02:13:50.866Z,15.30
2024-02-19T02:16:27.560Z,21.03
2024-02-19T02:18:55.226Z,11.77
2024-02-19T02:21:22.379Z,14.07
2024-02-19T02:23:50.175Z,16.80
2024-02-19T02:26:16.949Z,16.70
2024-02-19T02:28:43.733Z,14.50
2024-02-19T02:31:10.521Z,18.43
2024-02-19T02:33:37.694Z,20.23
2024-02-19T02:36:04.785Z,15.77
2024-02-19T02:38:32.425Z,11.60
2024-02-19T02:40:59.129Z,18.13
2024-02-19T02:43:25.972Z,17.93
2024-02-19T02:45:53.726Z,11.33
2024-02-19T02:48:20.993Z,21.67
2024-02-19T02:50:47.805Z,14.90
2024-02-19T02:53:16.492Z,15.83
2024-02-19T02:55:43.569Z,12.10
2024-02-19T02:58:10.406Z,17.53
2024-02-19T03:00:37.284Z,15.33
2024-02-19T03:03:04.358Z,18.33
2024-02-19T03:05:31.137Z,14.60
2024-02-19T03:07:58.421Z,11.50
2024-02-19T03:10:25.339Z,15.70
2024-02-19T03:12:52.323Z,15.73
2024-02-19T03:15:19.568Z,11.83
2024-02-19T03:17:46.493Z,14.93
2024-02-19T03:20:14.885Z,17.03
2024-02-19T03:22:44.855Z,15.93
2024-02-19T03:25:11.810Z,15.37
2024-02-19T03:27:39.277Z,17.90
2024-02-19T03:30:07.892Z,17.23
2024-02-19T03:32:34.837Z,13.43
2024-02-19T03:35:02.597Z,15.50
2024-02-19T03:37:29.467Z,11.17
2024-02-19T03:39:56.290Z,16.57
2024-02-19T03:42:23.011Z,12.37
2024-02-19T03:44:49.746Z,16.20
2024-02-19T03:47:16.513Z,16.63
2024-02-19T03:49:43.259Z,24.27
2024-02-19T03:52:10.113Z,21.53
2024-02-19T03:54:37.037Z,20.80
2024-02-19T03:57:04.837Z,19.27
2024-02-19T03:59:32.958Z,17.83
2024-02-19T04:02:01.194Z,13.77
2024-02-19T04:04:28.114Z,17.03
2024-02-19T04:06:55.271Z,11.07
2024-02-19T04:09:22.520Z,16.80
2024-02-19T04:11:49.421Z,16.73
2024-02-19T04:14:16.954Z,16.50
2024-02-19T04:16:43.966Z,18.50
2024-02-19T04:19:10.941Z,16.77
2024-02-19T04:21:44.330Z,23.60
2024-02-19T04:24:12.613Z,15.57
2024-02-19T04:26:40.030Z,19.63
2024-02-19T04:29:06.914Z,19.77
2024-02-19T04:31:33.792Z,19.43
2024-02-19T04:34:00.787Z,12.37
2024-02-19T04:36:27.542Z,17.67
2024-02-19T04:38:54.444Z,18.00
2024-02-19T04:41:21.561Z,19.00
2024-02-19T04:43:48.322Z,20.83
2024-02-19T04:46:15.170Z,22.30
2024-02-19T04:48:42.469Z,18.43
2024-02-19T04:51:09.256Z,22.80
2024-02-19T04:53:36.287Z,20.33
2024-02-19T04:56:03.072Z,21.57
2024-02-19T04:58:29.957Z,15.27
2024-02-19T05:00:56.758Z,18.97
2024-02-19T05:03:23.574Z,24.10
2024-02-19T05:05:50.519Z,14.27
2024-02-19T05:08:17.615Z,21.67
2024-02-19T05:10:44.868Z,16.93
2024-02-19T05:13:11.721Z,19.03
2024-02-19T05:15:38.482Z,25.40
2024-02-19T05:18:05.626Z,22.90
2024-02-19T05:20:32.454Z,16.03
2024-02-19T05:22:59.453Z,17.23
2024-02-19T05:25:26.312Z,19.13
2024-02-19T05:27:53.900Z,19.50
2024-02-19T05:30:23.248Z,22.63
2024-02-19T05:32:50.569Z,16.17
2024-02-19T05:35:17.482Z,16.43
2024-02-19T05:37:44.346Z,21.27
2024-02-19T05:40:12.151Z,24.50
2024-02-19T05:42:39.153Z,25.03
2024-02-19T05:45:06.562Z,20.80
2024-02-19T05:47:36.153Z,24.60
2024-02-19T05:50:03.381Z,22.50
2024-02-19T05:52:30.340Z,28.53
2024-02-19T05:54:59.716Z,27.87
2024-02-19T05:57:27.007Z,27.10
2024-02-19T05:59:56.531Z,24.83
2024-02-19T06:02:24.870Z,24.03
2024-02-19T06:04:51.976Z,24.83
2024-02-19T06:07:18.864Z,26.97
2024-02-19T06:09:45.782Z,26.47
2024-02-19T06:12:12.627Z,24.83
2024-02-19T06:14:39.633Z,22.50
2024-02-19T06:17:06.586Z,30.13
2024-02-19T06:19:33.540Z,26.20
2024-02-19T06:22:00.624Z,25.33
2024-02-19T06:24:27.792Z,25.13
2024-02-19T06:26:54.585Z,27.53
2024-02-19T06:29:21.249Z,26.93
2024-02-19T06:31:51.478Z,28.97
2024-02-19T06:34:18.773Z,31.00
2024-02-19T06:36:45.827Z,21.23
2024-02-19T06:39:13.291Z,28.17
2024-02-19T06:41:40.133Z,26.80
2024-02-19T06:44:07.285Z,26.37
2024-02-19T06:46:34.086Z,24.93
2024-02-19T06:49:01.566Z,23.13
2024-02-19T06:51:28.837Z,29.07
2024-02-19T06:53:55.785Z,27.93
2024-02-19T06:56:22.971Z,31.70
2024-02-19T06:58:49.850Z,30.33
2024-02-19T07:01:16.993Z,27.60
2024-02-19T07:03:44.204Z,28.93
2024-02-19T07:06:11.170Z,26.47
2024-02-19T07:08:37.946Z,33.43
2024-02-19T07:11:04.925Z,31.70
2024-02-19T07:13:31.957Z,28.67
2024-02-19T07:15:58.810Z,31.30
2024-02-19T07:18:26.392Z,20.93
2024-02-19T07:20:53.551Z,27.20
2024-02-19T07:23:22.429Z,25.47
2024-02-19T07:25:49.995Z,34.00
2024-02-19T07:28:17.771Z,27.20
2024-02-19T07:30:44.630Z,29.27
2024-02-19T07:33:11.572Z,26.90
2024-02-19T07:35:39.429Z,26.00
2024-02-19T07:38:06.456Z,27.13
2024-02-19T07:40:35.732Z,28.70
2024-02-19T07:43:03.821Z,22.10
2024-02-19T07:45:30.578Z,27.83
2024-02-19T07:47:57.883Z,21.30
2024-02-19T07:50:24.703Z,29.33
2024-02-19T07:52:51.501Z,29.47
2024-02-19T07:55:18.490Z,21.93
2024-02-19T07:57:45.409Z,25.57
2024-02-19T08:00:12.416Z,22.50
2024-02-19T08:02:39.264Z,23.93
2024-02-19T08:05:07.018Z,20.87
2024-02-19T08:07:34.106Z,25.03
2024-02-19T08:10:00.935Z,20.23
2024-02-19T08:12:27.918Z,24.90
2024-02-19T08:14:55.501Z,22.93
2024-02-19T08:17:22.321Z,24.97
2024-02-19T08:19:49.177Z,20.53
2024-02-19T08:22:16.042Z,15.43
2024-02-19T08:24:43.049Z,18.30
2024-02-19T08:27:09.900Z,17.83
2024-02-19T08:29:36.614Z,20.07
2024-02-19T08:32:03.585Z,19.20
2024-02-19T08:34:30.388Z,18.67
2024-02-19T08:36:57.386Z,15.33
2024-02-19T08:39:24.424Z,18.13
2024-02-19T08:41:51.356Z,21.43
2024-02-19T08:44:18.212Z,18.43
2024-02-19T08:46:45.012Z,17.30
2024-02-19T08:49:12.863Z,18.53
2024-02-19T08:51:39.915Z,20.10
2024-02-19T08:54:07.413Z,18.87
2024-02-19T08:56:34.362Z,19.87
2024-02-19T08:59:05.049Z,14.27
2024-02-19T09:01:32.099Z,14.13
2024-02-19T09:03:58.961Z,14.97
2024-02-19T09:06:25.885Z,18.60
2024-02-19T09:08:52.727Z,21.20
2024-02-19T09:11:19.682Z,15.47
2024-02-19T09:13:47.588Z,15.37
2024-02-19T09:16:15.032Z,12.17
2024-02-19T09:18:42.128Z,21.83
2024-02-19T09:21:09.258Z,18.17
2024-02-19T09:23:36.922Z,16.80
2024-02-19T09:26:04.057Z,16.90
2024-02-19T09:28:31.101Z,19.10
2024-02-19T09:30:58.010Z,18.00
2024-02-19T09:33:25.722Z,20.20
2024-02-19T09:35:52.759Z,11.77
2024-02-19T09:38:20.199Z,18.13
2024-02-19T09:40:50.696Z,16.30
2024-02-19T09:43:18.603Z,16.53
2024-02-19T09:45:45.812Z,13.77
2024-02-19T09:48:14.009Z,16.53
2024-02-19T09:50:48.511Z,15.33
2024-02-19T09:53:29.032Z,15.73
2024-02-19T09:55:57.423Z,16.77
2024-02-19T09:58:25.030Z,20.83
2024-02-19T10:00:52.243Z,20.23
2024-02-19T10:03:20.325Z,21.87
2024-02-19T10:05:48.869Z,19.27
2024-02-19T10:08:16.485Z,23.27
2024-02-19T10:10:46.616Z,23.33
2024-02-19T10:13:14.645Z,26.70
2024-02-19T10:15:43.099Z,26.00
2024-02-19T10:18:15.763Z,27.17
2024-02-19T10:20:46.062Z,33.73
2024-02-19T10:23:13.179Z,26.40
2024-02-19T10:25:40.378Z,23.17
2024-02-19T10:28:09.619Z,27.13
2024-02-19T10:30:37.022Z,24.97
2024-02-19T10:33:04.299Z,28.33
2024-02-19T10:35:32.478Z,26.63
2024-02-19T10:38:02.985Z,21.03
2024-02-19T10:40:29.960Z,21.10
2024-02-19T10:42:57.804Z,26.77
2024-02-19T10:45:25.771Z,23.00
2024-02-19T10:47:56.668Z,20.37
2024-02-19T10:50:23.967Z,24.73
2024-02-19T10:52:52.169Z,18.97
2024-02-19T10:55:32.727Z,24.83
2024-02-19T10:58:16.468Z,25.63
2024-02-19T11:00:45.431Z,27.60
2024-02-19T11:03:14.722Z,21.53
2024-02-19T11:05:46.644Z,19.93
2024-02-19T11:08:25.461Z,23.47
2024-02-19T11:10:56.923Z,22.70
2024-02-19T11:13:28.032Z,21.90
2024-02-19T11:15:55.192Z,26.90
2024-02-19T11:18:22.403Z,27.40
2024-02-19T11:20:50.710Z,25.33
2024-02-19T11:23:18.683Z,20.47
2024-02-19T11:25:47.427Z,25.93
2024-02-19T11:28:14.754Z,21.67
2024-02-19T11:30:41.835Z,25.93
2024-02-19T11:33:10.890Z,22.83
2024-02-19T11:35:38.925Z,24.47
2024-02-19T11:38:06.073Z,19.47
2024-02-19T11:40:33.564Z,21.43
2024-02-19T11:43:02.306Z,21.57
2024-02-19T11:45:30.648Z,20.37
2024-02-19T11:47:58.521Z,19.70
2024-02-19T11:50:32.182Z,21.50
2024-02-19T11:53:05.791Z,22.53
2024-02-19T11:55:35.093Z,22.70
2024-02-19T11:58:03.530Z,18.80
2024-02-19T12:00:31.726Z,16.53
2024-02-19T12:03:00.659Z,20.43
2024-02-19T12:05:28.168Z,16.07
2024-02-19T12:07:55.289Z,13.17
2024-02-19T12:10:22.680Z,15.93
2024-02-19T12:12:50.792Z,11.83
2024-02-19T12:15:17.750Z,13.20
2024-02-19T12:17:44.973Z,15.07
2024-02-19T12:20:13.059Z,13.17
2024-02-19T12:22:41.817Z,15.03
2024-02-19T12:25:09.260Z,18.37
2024-02-19T12:27:36.128Z,15.00
2024-02-19T12:30:03.632Z,15.40
2024-02-19T12:32:30.635Z,14.43
2024-02-19T12:34:57.922Z,16.73
2024-02-19T12:37:25.187Z,13.90
2024-02-19T12:39:52.010Z,12.83
2024-02-19T12:42:19.117Z,9.83
2024-02-19T12:44:45.848Z,10.30
2024-02-19T12:47:12.755Z,13.07
2024-02-19T12:49:40.330Z,10.23
2024-02-19T12:52:09.838Z,10.10
2024-02-19T12:54:37.267Z,11.70
2024-02-19T12:57:07.038Z,12.37
2024-02-19T12:59:34.307Z,10.47
2024-02-19T13:02:01.324Z,7.70
2024-02-19T13:04:28.611Z,9.67
2024-02-19T13:07:01.250Z,11.53
2024-02-19T13:09:35.880Z,11.37
2024-02-19T13:12:10.280Z,12.97
2024-02-19T13:14:37.827Z,10.73
2024-02-19T13:17:13.162Z,15.17
2024-02-19T13:19:47.409Z,9.53
2024-02-19T13:22:14.629Z,10.23
2024-02-19T13:24:41.943Z,10.00
2024-02-19T13:27:09.619Z,9.17
2024-02-19T13:29:36.700Z,11.17
2024-02-19T13:32:03.907Z,13.73
2024-02-19T13:34:31.329Z,10.73
2024-02-19T13:36:58.312Z,13.63
2024-02-19T13:39:26.308Z,18.43
2024-02-19T13:41:53.767Z,7.00
2024-02-19T13:44:20.878Z,10.53
2024-02-19T13:46:48.044Z,11.10
2024-02-19T13:49:15.599Z,10.33
2024-02-19T13:51:43.060Z,9.07
2024-02-19T13:54:10.396Z,11.13
2024-02-19T13:56:37.299Z,14.37
2024-02-19T13:59:06.853Z,11.77
2024-02-19T14:01:35.568Z,12.67
2024-02-19T14:04:05.156Z,10.57
2024-02-19T14:06:32.767Z,11.67
2024-02-19T14:09:00.733Z,6.63
2024-02-19T14:11:27.810Z,10.27
2024-02-19T14:14:02.024Z,10.30
2024-02-19T14:16:31.296Z,12.03
2024-02-19T14:19:00.258Z,8.83
2024-02-19T14:21:27.642Z,11.63
2024-02-19T14:23:55.649Z,12.87
2024-02-19T14:26:24.936Z,12.90
2024-02-19T14:28:54.090Z,13.40
2024-02-19T14:31:22.193Z,14.50
2024-02-19T14:33:51.272Z,9.83
2024-02-19T14:36:18.481Z,11.80
2024-02-19T14:38:45.420Z,10.17
2024-02-19T14:41:15.802Z,13.03
2024-02-19T14:43:43.246Z,13.17
2024-02-19T14:46:10.781Z,7.40
2024-02-19T14:48:39.390Z,13.83
2024-02-19T14:51:07.085Z,12.63
2024-02-19T14:53:34.402Z,11.13
2024-02-19T14:56:01.443Z,13.17
2024-02-19T14:58:28.316Z,10.87
2024-02-19T15:00:55.311Z,12.63
2024-02-19T15:03:22.397Z,8.30
2024-02-19T15:05:50.655Z,9.53
2024-02-19T15:08:21.164Z,9.87
2024-02-19T15:10:48.551Z,15.03
2024-02-19T15:13:16.259Z,8.07
2024-02-19T15:15:43.147Z,9.40
2024-02-19T15:18:11.917Z,7.50
2024-02-19T15:20:38.804Z,9.87
2024-02-19T15:23:05.523Z,12.47
2024-02-19T15:25:32.686Z,12.07
2024-02-19T15:28:00.145Z,17.07
2024-02-19T15:30:27.380Z,7.93
2024-02-19T15:32:54.366Z,7.80
2024-02-19T15:35:21.514Z,8.40
2024-02-19T15:37:48.315Z,9.63
2024-02-19T15:40:15.139Z,6.13
2024-02-19T15:42:41.838Z,11.60
2024-02-19T15:45:09.389Z,16.03
2024-02-19T15:47:36.448Z,12.07
2024-02-19T15:50:07.674Z,12.50
2024-02-19T15:52:35.100Z,17.20
2024-02-19T15:55:02.249Z,7.47
2024-02-19T15:57:29.346Z,14.53
2024-02-19T15:59:56.211Z,9.57
2024-02-19T16:02:23.123Z,11.70
2024-02-19T16:04:51.033Z,12.63
2024-02-19T16:07:20.385Z,10.60
2024-02-19T16:09:49.650Z,21.50
2024-02-19T16:12:16.548Z,12.43
2024-02-19T16:14:44.656Z,11.63
2024-02-19T16:17:11.522Z,12.40
2024-02-19T16:19:39.110Z,11.77
2024-02-19T16:22:06.271Z,11.77
2024-02-19T16:24:35.892Z,9.53
2024-02-19T16:27:05.089Z,8.60
2024-02-19T16:29:32.343Z,8.27
2024-02-19T16:31:59.372Z,10.70
2024-02-19T16:34:26.602Z,11.40
2024-02-19T16:36:53.893Z,11.53
2024-02-19T16:39:21.179Z,11.37
2024-02-19T16:41:48.071Z,9.83
2024-02-19T16:44:14.928Z,12.83
2024-02-19T16:46:41.921Z,7.43
2024-02-19T16:49:08.931Z,8.63
2024-02-19T16:51:43.025Z,10.57
2024-02-19T16:54:10.380Z,10.90
2024-02-19T16:56:37.358Z,8.77
2024-02-19T16:59:04.391Z,10.17
2024-02-19T17:01:31.870Z,8.83
2024-02-19T17:03:58.992Z,12.33
2024-02-19T17:06:25.806Z,13.43
2024-02-19T17:08:52.865Z,18.83
2024-02-19T17:11:22.750Z,12.10
2024-02-19T17:13:49.734Z,9.27
2024-02-19T17:16:16.548Z,11.60
2024-02-19T17:18:43.826Z,18.20
2024-02-19T17:21:11.085Z,15.97
2024-02-19T17:23:37.958Z,10.87
2024-02-19T17:26:04.979Z,15.50
2024-02-19T17:28:35.931Z,14.90
2024-02-19T17:31:05.142Z,14.67
2024-02-19T17:33:32.536Z,16.27
2024-02-19T17:35:59.644Z,17.20
2024-02-19T17:38:26.555Z,16.53
2024-02-19T17:40:55.610Z,11.93
2024-02-19T17:43:22.664Z,12.03
2024-02-19T17:45:49.645Z,14.57
2024-02-19T17:48:16.581Z,21.67
2024-02-19T17:50:43.499Z,13.30
2024-02-19T17:53:10.454Z,8.43
2024-02-19T17:55:37.431Z,9.67
2024-02-19T17:58:04.589Z,13.37
2024-02-19T18:00:31.559Z,15.50
2024-02-19T18:03:01.994Z,9.87
2024-02-19T18:05:29.401Z,17.27
2024-02-19T18:07:56.381Z,17.07
2024-02-19T18:10:23.349Z,13.17
2024-02-19T18:12:50.457Z,17.17
2024-02-19T18:15:22.350Z,12.50
2024-02-19T18:17:53.504Z,22.60
2024-02-19T18:20:21.372Z,16.70
2024-02-19T18:22:48.303Z,17.40
2024-02-19T18:25:15.224Z,15.13
2024-02-19T18:27:42.612Z,10.57
2024-02-19T18:30:13.542Z,11.40
2024-02-19T18:32:42.685Z,13.70
2024-02-19T18:35:12.848Z,16.13
2024-02-19T18:37:39.840Z,12.50
2024-02-19T18:40:08.461Z,17.30
2024-02-19T18:42:36.500Z,18.47
2024-02-19T18:45:04.024Z,18.57
2024-02-19T18:47:31.496Z,16.73
2024-02-19T18:49:58.679Z,16.17
2024-02-19T18:52:25.848Z,16.77
2024-02-19T18:54:53.298Z,17.87
2024-02-19T18:57:20.425Z,14.97
2024-02-19T18:59:47.283Z,18.10
2024-02-19T19:02:14.264Z,13.60
2024-02-19T19:04:45.904Z,12.57
2024-02-19T19:07:13.450Z,23.87
2024-02-19T19:09:43.265Z,18.93
2024-02-19T19:12:11.684Z,14.67
2024-02-19T19:14:38.973Z,15.57
2024-02-19T19:17:06.466Z,20.07
2024-02-19T19:19:33.641Z,16.70
2024-02-19T19:22:00.678Z,17.63
2024-02-19T19:24:27.545Z,16.57
2024-02-19T19:26:54.328Z,19.53
2024-02-19T19:29:22.155Z,17.37
2024-02-19T19:31:49.596Z,11.43
2024-02-19T19:34:17.891Z,15.07
2024-02-19T19:36:47.661Z,23.00
2024-02-19T19:39:14.826Z,18.13
2024-02-19T19:41:41.683Z,12.10
2024-02-19T19:44:12.006Z,14.23
2024-02-19T19:46:39.832Z,22.57
2024-02-19T19:49:06.783Z,17.47
2024-02-19T19:51:33.783Z,14.13
2024-02-19T19:54:00.522Z,19.10
2024-02-19T19:56:27.362Z,24.80
2024-02-19T19:58:56.448Z,16.73
2024-02-19T20:01:23.738Z,16.83
2024-02-19T20:03:51.000Z,15.83
2024-02-19T20:06:19.125Z,15.37
2024-02-19T20:08:48.870Z,17.87
2024-02-19T20:11:16.986Z,15.13
2024-02-19T20:13:43.759Z,18.03
2024-02-19T20:16:10.696Z,16.53
2024-02-19T20:18:38.114Z,19.57
2024-02-19T20:21:05.826Z,17.90
2024-02-19T20:23:33.545Z,23.93
2024-02-19T20:26:00.585Z,13.53
2024-02-19T20:28:27.537Z,21.83
2024-02-19T20:30:54.649Z,17.40
2024-02-19T20:33:21.729Z,19.07
2024-02-19T20:35:48.956Z,19.37
2024-02-19T20:38:15.852Z,23.10
2024-02-19T20:40:43.104Z,17.40
2024-02-19T20:43:11.699Z,16.87
2024-02-19T20:45:40.705Z,23.70
2024-02-19T20:48:08.205Z,20.37
2024-02-19T20:50:35.142Z,13.90
2024-02-19T20:53:02.046Z,16.90
2024-02-19T20:55:30.081Z,17.13
2024-02-19T20:57:57.863Z,21.43
2024-02-19T21:00:26.504Z,16.00
2024-02-19T21:02:53.705Z,19.27
2024-02-19T21:05:21.215Z,20.93
2024-02-19T21:07:48.214Z,19.77
2024-02-19T21:10:15.159Z,22.60
2024-02-19T21:12:42.582Z,22.43
2024-02-19T21:15:12.820Z,25.57
2024-02-19T21:17:39.734Z,24.07
2024-02-19T21:20:07.445Z,15.07
2024-02-19T21:22:34.702Z,21.43
2024-02-19T21:25:01.923Z,21.23
2024-02-19T21:27:31.978Z,20.40
2024-02-19T21:29:59.022Z,18.50
2024-02-19T21:32:30.053Z,17.60
2024-02-19T21:35:01.296Z,19.67
2024-02-19T21:37:31.067Z,24.97
2024-02-19T21:39:58.374Z,14.70
2024-02-19T21:42:26.084Z,12.67
2024-02-19T21:44:54.025Z,21.33
2024-02-19T21:47:23.981Z,17.93
2024-02-19T21:49:53.759Z,22.43
2024-02-19T21:52:20.669Z,17.57
2024-02-19T21:54:47.609Z,28.77
2024-02-19T21:57:14.352Z,21.10
2024-02-19T21:59:41.248Z,23.30
2024-02-19T22:02:08.269Z,20.57
2024-02-19T22:04:36.354Z,25.80
2024-02-19T22:07:03.519Z,20.80
2024-02-19T22:09:31.188Z,14.47
2024-02-19T22:11:57.902Z,25.20
2024-02-19T22:14:25.596Z,19.73
2024-02-19T22:16:52.321Z,23.97
2024-02-19T22:19:19.319Z,22.00
2024-02-19T22:21:46.204Z,19.17
2024-02-19T22:24:13.913Z,18.03
2024-02-19T22:26:40.797Z,18.80
2024-02-19T22:29:07.823Z,25.93
2024-02-19T22:31:35.045Z,19.67
2024-02-19T22:34:02.148Z,26.87
2024-02-19T22:36:29.039Z,21.43
2024-02-19T22:38:55.790Z,21.00
2024-02-19T22:41:22.475Z,26.70
2024-02-19T22:43:49.310Z,18.33
2024-02-19T22:46:16.337Z,27.07
2024-02-19T22:48:43.175Z,19.03
2024-02-19T22:51:10.019Z,13.43
2024-02-19T22:53:37.654Z,19.77
2024-02-19T22:56:09.199Z,17.03
2024-02-19T22:58:36.703Z,16.87
2024-02-19T23:01:05.425Z,23.17
2024-02-19T23:03:33.050Z,20.63
2024-02-19T23:05:59.914Z,23.43
2024-02-19T23:08:27.144Z,22.30
2024-02-19T23:10:55.849Z,25.80
2024-02-19T23:13:22.927Z,20.60
2024-02-19T23:15:49.808Z,18.50
2024-02-19T23:18:16.762Z,23.17
2024-02-19T23:20:43.570Z,20.77
2024-02-19T23:23:10.403Z,18.10
2024-02-19T23:25:37.238Z,21.93
2024-02-19T23:28:04.825Z,22.33
2024-02-19T23:30:31.689Z,23.27
2024-02-19T23:32:59.559Z,19.40
2024-02-19T23:35:29.195Z,19.33
2024-02-19T23:37:56.299Z,19.03
2024-02-19T23:40:23.214Z,17.30
2024-02-19T23:42:49.984Z,21.97
2024-02-19T23:45:16.941Z,18.23
2024-02-19T23:47:43.858Z,19.93
2024-02-19T23:50:11.293Z,22.40
2024-02-19T23:52:42.018Z,19.87
2024-02-19T23:55:14.784Z,21.40
2024-02-19T23:57:41.809Z,22.43
